Time;durP1;ratioP1;P1;durP2;ratioP2;P2;SDS_P1;SDS_P2;PMS_P1;PMS_P2;Temp;Humidity;BMP_temperature;BMP_pressure;BME280_temperature;BME280_humidity;BME280_pressure;Samples;Min_cycle;Max_cycle;Signal;HPM_P1;HPM_P2
2023/09/18 00:00:54;;;;;;;;;6.33;3.33;;;;;20.39;79.58;100186.47;5056153;27;45540;-67
2023/09/18 00:03:24;;;;;;;;;4.00;3.00;;;;;20.31;80.26;100194.78;5056349;27;45531;-67
2023/09/18 00:05:52;;;;;;;;;4.00;3.67;;;;;20.42;80.17;100218.22;5057260;27;45529;-68
2023/09/18 00:08:19;;;;;;;;;5.67;3.33;;;;;20.27;80.33;100204.72;5056710;27;45511;-67
2023/09/18 00:10:50;;;;;;;;;3.00;3.00;;;;;20.27;80.18;100214.50;5056518;27;45507;-68
2023/09/18 00:13:16;;;;;;;;;4.33;3.00;;;;;20.28;80.60;100214.41;5056506;27;45275;-68
2023/09/18 00:15:48;;;;;;;;;4.00;4.00;;;;;20.19;80.19;100190.03;5060531;27;45532;-67
2023/09/18 00:18:15;;;;;;;;;6.00;4.00;;;;;20.27;80.15;100202.06;5073209;27;46668;-66
2023/09/18 00:20:48;;;;;;;;;2.00;2.00;;;;;20.11;79.82;100175.31;5056575;27;45418;-68
2023/09/18 00:23:15;;;;;;;;;2.67;2.00;;;;;20.12;79.10;100152.25;5056558;27;45339;-68
2023/09/18 00:25:42;;;;;;;;;4.67;3.00;;;;;20.39;79.11;100197.97;5057017;27;45494;-67
2023/09/18 00:28:08;;;;;;;;;3.33;3.33;;;;;20.43;78.99;100193.34;5056484;27;45413;-68
2023/09/18 00:30:34;;;;;;;;;4.00;3.00;;;;;20.53;78.62;100202.63;5078262;27;45518;-68
2023/09/18 00:32:59;;;;;;;;;3.33;3.33;;;;;20.62;77.53;100204.88;5059207;27;45389;-68
2023/09/18 00:35:25;;;;;;;;;2.33;2.00;;;;;20.67;76.52;100218.81;5057055;27;45460;-68
2023/09/18 00:37:51;;;;;;;;;3.00;2.00;;;;;20.67;76.57;100213.50;5056941;28;45461;-67
2023/09/18 00:40:16;;;;;;;;;2.00;2.00;;;;;20.68;75.67;100201.91;5056854;27;45504;-68
2023/09/18 00:42:42;;;;;;;;;2.33;2.33;;;;;20.64;75.90;100210.97;5058098;27;45210;-67
2023/09/18 00:45:09;;;;;;;;;4.33;2.67;;;;;20.67;75.79;100207.31;5069839;28;45521;-67
2023/09/18 00:47:36;;;;;;;;;2.00;2.00;;;;;20.65;75.87;100206.53;5077027;28;45357;-68
2023/09/18 00:50:04;;;;;;;;;2.00;2.00;;;;;20.60;75.15;100188.13;5076806;27;45535;-68
2023/09/18 00:52:31;;;;;;;;;3.33;3.00;;;;;20.65;75.10;100190.56;5061806;27;45563;-68
2023/09/18 00:54:57;;;;;;;;;4.33;2.33;;;;;20.63;75.11;100206.59;5056952;28;45355;-69
2023/09/18 00:57:23;;;;;;;;;4.00;2.33;;;;;20.57;74.79;100196.22;5061063;28;46048;-68
2023/09/18 00:59:48;;;;;;;;;3.00;3.00;;;;;20.57;75.00;100212.19;5076210;28;45479;-67
2023/09/18 01:02:14;;;;;;;;;3.00;2.00;;;;;20.53;74.94;100206.16;5074110;27;45437;-68
2023/09/18 01:04:43;;;;;;;;;3.33;2.00;;;;;20.52;74.95;100216.84;5076967;27;45517;-68
2023/09/18 01:07:09;;;;;;;;;6.67;2.67;;;;;20.45;74.57;100200.31;5077446;28;45468;-69
2023/09/18 01:09:35;;;;;;;;;2.00;2.00;;;;;20.60;74.35;100222.72;5069589;27;45333;-67
2023/09/18 01:12:08;;;;;;;;;3.00;3.00;;;;;20.57;74.56;100216.66;5072194;28;45336;-68
2023/09/18 01:14:49;;;;;;;;;2.00;2.00;;;;;20.65;74.29;100223.34;5076967;28;45797;-68
2023/09/18 01:17:17;;;;;;;;;1.67;1.67;;;;;20.59;74.23;100220.13;5076315;28;45474;-68
2023/09/18 01:19:46;;;;;;;;;1.67;1.67;;;;;20.59;74.43;100204.16;5058165;28;45579;-68
2023/09/18 01:22:17;;;;;;;;;2.00;2.00;;;;;20.74;73.53;100195.44;5076601;28;45335;-69
2023/09/18 01:24:44;;;;;;;;;3.00;2.00;;;;;20.85;73.40;100206.41;5077757;28;45256;-69
2023/09/18 01:27:16;;;;;;;;;1.00;0.67;;;;;20.91;73.04;100200.78;5063471;28;46304;-69
2023/09/18 01:29:43;;;;;;;;;3.33;2.00;;;;;20.94;72.76;100197.13;5075536;28;45371;-68
2023/09/18 01:32:09;;;;;;;;;3.00;1.00;;;;;20.97;72.53;100212.94;5075828;28;45386;-68
2023/09/18 01:34:45;;;;;;;;;1.67;1.67;;;;;20.91;72.33;100210.59;5077103;28;45505;-68
2023/09/18 01:37:12;;;;;;;;;2.00;2.00;;;;;20.90;72.24;100187.56;5076039;28;46121;-68
2023/09/18 01:39:39;;;;;;;;;0.00;0.00;;;;;20.96;72.07;100208.56;5075971;27;45402;-68
2023/09/18 01:42:06;;;;;;;;;1.00;1.00;;;;;20.89;72.16;100200.00;5076980;28;45354;-67
2023/09/18 01:44:33;;;;;;;;;1.50;1.00;;;;;20.94;72.06;100199.78;5077453;28;45579;-69
2023/09/18 01:47:01;;;;;;;;;1.00;1.00;;;;;20.91;72.11;100190.16;5059198;28;46958;-68
2023/09/18 01:49:37;;;;;;;;;1.00;1.00;;;;;20.84;72.37;100190.53;5057733;28;45430;-67
2023/09/18 01:52:04;;;;;;;;;1.75;1.75;;;;;20.83;72.31;100189.66;5079742;27;45449;-68
2023/09/18 01:54:32;;;;;;;;;3.33;2.00;;;;;20.70;72.37;100185.88;5080562;28;45634;-68
2023/09/18 01:56:57;;;;;;;;;2.00;2.00;;;;;20.60;73.03;100196.13;5079321;28;46186;-68
2023/09/18 01:59:24;;;;;;;;;1.33;1.33;;;;;20.54;73.36;100196.34;5079704;28;45410;-68
2023/09/18 02:01:51;;;;;;;;;3.00;1.00;;;;;20.64;72.96;100191.50;5065937;28;45447;-68
2023/09/18 02:04:17;;;;;;;;;1.33;1.33;;;;;20.73;72.73;100193.72;5079870;28;45842;-68
2023/09/18 02:06:44;;;;;;;;;1.33;1.33;;;;;20.77;72.42;100202.41;5079488;28;46347;-68
2023/09/18 02:09:10;;;;;;;;;4.00;1.00;;;;;20.77;72.62;100202.41;5079422;28;45572;-68
2023/09/18 02:11:38;;;;;;;;;2.00;1.00;;;;;20.74;72.59;100203.44;5080124;28;45479;-66
2023/09/18 02:14:05;;;;;;;;;3.33;2.00;;;;;20.82;72.46;100214.56;5079662;28;45697;-67
2023/09/18 02:16:32;;;;;;;;;1.00;1.00;;;;;20.80;72.01;100218.22;5078540;28;46137;-67
2023/09/18 02:18:57;;;;;;;;;5.00;2.33;;;;;20.52;72.80;100187.59;5077805;28;45544;-67
2023/09/18 02:21:23;;;;;;;;;2.00;2.00;;;;;20.59;73.08;100209.47;5078868;28;45347;-68
2023/09/18 02:23:53;;;;;;;;;2.00;2.00;;;;;20.67;72.74;100225.97;5079535;28;45461;-68
2023/09/18 02:26:23;;;;;;;;;2.00;2.00;;;;;20.63;73.06;100232.34;5077998;28;46981;-66
2023/09/18 02:28:48;;;;;;;;;3.33;2.67;;;;;20.58;73.08;100224.59;5079875;27;45429;-68
2023/09/18 02:31:15;;;;;;;;;1.67;1.67;;;;;20.66;72.82;100216.22;5080080;28;45536;-67
2023/09/18 02:33:42;;;;;;;;;3.33;2.00;;;;;20.78;72.65;100214.78;5079492;27;45426;-68
2023/09/18 02:36:07;;;;;;;;;2.00;2.00;;;;;20.75;72.48;100211.31;5079192;28;46314;-67
2023/09/18 02:38:33;;;;;;;;;3.00;1.67;;;;;20.92;72.26;100220.28;5079630;28;45497;-68
2023/09/18 02:40:59;;;;;;;;;0.00;0.00;;;;;20.89;71.74;100199.16;5078562;27;45542;-68
2023/09/18 02:43:25;;;;;;;;;1.00;1.00;;;;;20.86;71.97;100217.94;5079224;28;45353;-68
2023/09/18 02:45:51;;;;;;;;;1.67;1.67;;;;;20.94;71.82;100221.06;5077074;28;45563;-68
2023/09/18 02:48:18;;;;;;;;;1.00;1.00;;;;;20.98;71.36;100225.31;5079069;28;45598;-68
2023/09/18 02:50:44;;;;;;;;;3.00;3.00;;;;;20.84;71.84;100219.81;5078568;27;45384;-68
2023/09/18 02:53:23;;;;;;;;;2.33;2.33;;;;;20.86;72.09;100223.25;5077225;28;45581;-67
2023/09/18 02:55:50;;;;;;;;;2.33;2.33;;;;;20.71;72.46;100217.72;5077148;28;45723;-68
2023/09/18 02:58:16;;;;;;;;;3.00;2.33;;;;;20.83;72.37;100228.72;5078136;28;45534;-68
2023/09/18 03:00:46;;;;;;;;;3.67;3.67;;;;;20.78;72.24;100215.63;5071899;28;45429;-68
2023/09/18 03:03:12;;;;;;;;;2.67;2.67;;;;;20.87;71.89;100211.66;5059587;28;45417;-68
2023/09/18 03:05:39;;;;;;;;;3.33;3.00;;;;;20.95;71.70;100199.72;5078495;27;45382;-68
2023/09/18 03:08:05;;;;;;;;;5.00;3.00;;;;;21.04;71.42;100200.19;5065407;28;45553;-69
2023/09/18 03:10:39;;;;;;;;;3.00;3.00;;;;;20.95;71.17;100183.75;5069416;27;45503;-68
2023/09/18 03:13:05;;;;;;;;;3.00;2.00;;;;;21.06;71.13;100198.31;5079702;27;45361;-68
2023/09/18 03:15:31;;;;;;;;;4.75;2.00;;;;;21.03;70.93;100186.00;5078114;27;45380;-67
2023/09/18 03:17:58;;;;;;;;;4.00;2.00;;;;;20.88;71.36;100179.66;5078357;27;45400;-67
2023/09/18 03:20:26;;;;;;;;;2.67;1.67;;;;;20.88;71.56;100198.28;5077437;27;45474;-68
2023/09/18 03:22:52;;;;;;;;;2.33;2.33;;;;;20.90;71.55;100185.75;5078797;27;45495;-68
2023/09/18 03:25:19;;;;;;;;;2.75;2.00;;;;;20.92;71.21;100177.69;5077754;27;45481;-69
2023/09/18 03:27:44;;;;;;;;;3.00;2.33;;;;;20.89;71.21;100181.38;5094897;27;45509;-68
2023/09/18 03:30:12;;;;;;;;;4.00;2.00;;;;;20.99;71.12;100180.91;5077904;27;45452;-69
2023/09/18 03:32:42;;;;;;;;;3.67;3.67;;;;;20.98;70.89;100187.19;5077110;27;45548;-68
2023/09/18 03:35:15;;;;;;;;;3.33;2.67;;;;;20.99;71.05;100179.09;5077889;27;45797;-68
2023/09/18 03:37:41;;;;;;;;;2.00;2.00;;;;;21.08;70.89;100191.09;5077672;27;45459;-68
2023/09/18 03:40:08;;;;;;;;;5.33;4.00;;;;;21.05;70.34;100189.47;5078000;27;45302;-68
2023/09/18 03:42:34;;;;;;;;;2.33;2.00;;;;;21.09;70.63;100191.00;5078103;27;45404;-68
2023/09/18 03:44:59;;;;;;;;;2.33;2.33;;;;;21.14;70.48;100190.78;5078344;27;45439;-67
2023/09/18 03:47:25;;;;;;;;;3.00;3.00;;;;;21.09;70.23;100179.50;5078502;27;45483;-68
2023/09/18 03:49:51;;;;;;;;;3.67;3.67;;;;;21.01;70.68;100181.72;5078099;27;45400;-68
2023/09/18 03:52:16;;;;;;;;;3.00;3.00;;;;;20.93;70.94;100179.44;5077666;27;45523;-68
2023/09/18 03:54:42;;;;;;;;;3.33;3.33;;;;;21.04;70.67;100187.72;5093571;27;46346;-68
2023/09/18 03:57:07;;;;;;;;;5.00;3.33;;;;;21.02;70.64;100176.28;5078147;27;45471;-68
2023/09/18 03:59:33;;;;;;;;;2.33;1.67;;;;;21.09;70.48;100185.69;5078696;27;45255;-69
2023/09/18 04:01:59;;;;;;;;;4.67;3.00;;;;;20.98;70.42;100152.59;5063559;28;45586;-68
2023/09/18 04:04:24;;;;;;;;;5.00;3.00;;;;;21.08;70.45;100177.81;5093192;27;47708;-68
2023/09/18 04:06:50;;;;;;;;;5.00;3.00;;;;;21.08;70.39;100178.66;5076780;28;45271;-68
2023/09/18 04:09:15;;;;;;;;;2.00;2.00;;;;;21.13;70.26;100178.41;5077331;27;45527;-67
2023/09/18 04:11:41;;;;;;;;;5.33;4.67;;;;;21.20;70.20;100185.16;5077308;27;45429;-68
2023/09/18 04:14:06;;;;;;;;;2.33;2.00;;;;;21.23;69.92;100186.81;5076325;27;45378;-68
2023/09/18 04:16:35;;;;;;;;;3.00;3.00;;;;;21.11;70.23;100181.16;5077303;28;45522;-68
2023/09/18 04:19:01;;;;;;;;;3.50;2.25;;;;;21.08;70.61;100188.44;5077531;27;45245;-69
2023/09/18 04:21:27;;;;;;;;;5.00;4.00;;;;;20.98;70.99;100187.19;5077104;28;45382;-66
2023/09/18 04:23:57;;;;;;;;;4.00;3.33;;;;;20.79;70.88;100169.47;5078135;28;45449;-67
2023/09/18 04:26:23;;;;;;;;;5.00;4.00;;;;;20.93;71.03;100177.63;5077235;28;45654;-69
2023/09/18 04:28:49;;;;;;;;;8.00;3.33;;;;;20.61;71.43;100159.72;5077282;27;45310;-68
2023/09/18 04:31:16;;;;;;;;;2.67;2.33;;;;;20.66;71.91;100168.34;5075968;28;45603;-68
2023/09/18 04:33:41;;;;;;;;;4.33;4.33;;;;;20.75;71.80;100174.06;5076894;28;46639;-68
2023/09/18 04:36:07;;;;;;;;;2.67;2.67;;;;;20.74;72.07;100175.00;5078316;27;45251;-68
2023/09/18 04:38:33;;;;;;;;;3.00;2.33;;;;;20.67;71.99;100178.06;5078750;27;45511;-69
2023/09/18 04:41:00;;;;;;;;;5.00;2.67;;;;;20.58;72.42;100171.38;5078073;27;45547;-68
2023/09/18 04:43:25;;;;;;;;;3.00;3.00;;;;;20.59;72.33;100164.25;5072223;28;46969;-68
2023/09/18 04:45:51;;;;;;;;;4.33;3.00;;;;;20.58;72.18;100160.72;5072242;28;45410;-69
2023/09/18 04:48:17;;;;;;;;;3.33;3.33;;;;;20.58;72.48;100176.69;5072232;28;45433;-69
2023/09/18 04:50:43;;;;;;;;;2.67;2.67;;;;;20.61;72.30;100163.22;5070415;28;45263;-69
2023/09/18 04:53:09;;;;;;;;;4.00;3.33;;;;;20.74;72.04;100174.16;5074873;27;47883;-69
2023/09/18 04:55:34;;;;;;;;;3.33;3.00;;;;;20.61;71.82;100143.75;5056710;28;45459;-68
2023/09/18 04:58:00;;;;;;;;;4.67;3.00;;;;;20.87;71.29;100183.25;5056847;28;45801;-68
2023/09/18 05:00:26;;;;;;;;;4.00;4.00;;;;;20.92;71.16;100189.19;5057878;28;45420;-67
2023/09/18 05:02:53;;;;;;;;;5.00;5.00;;;;;20.89;71.28;100191.16;5068112;28;46268;-68
2023/09/18 05:05:18;;;;;;;;;4.00;4.00;;;;;20.86;71.21;100183.34;5076431;27;45219;-68
2023/09/18 05:07:44;;;;;;;;;6.33;5.33;;;;;20.70;71.49;100168.09;5076712;27;45457;-69
2023/09/18 05:10:10;;;;;;;;;1.33;1.33;;;;;20.70;71.67;100178.75;5075514;28;45354;-67
2023/09/18 05:12:37;;;;;;;;;4.33;4.33;;;;;20.76;71.32;100188.22;5077308;28;45436;-65
2023/09/18 05:15:04;;;;;;;;;4.33;4.33;;;;;20.70;71.62;100186.75;5077305;28;45463;-68
2023/09/18 05:17:43;;;;;;;;;5.00;5.00;;;;;20.74;71.56;100185.66;5062526;28;45697;-67
2023/09/18 05:20:16;;;;;;;;;7.33;6.00;;;;;20.72;71.39;100184.88;5076848;27;45382;-68
2023/09/18 05:22:43;;;;;;;;;7.67;4.67;;;;;20.62;71.58;100182.72;5076718;28;45587;-67
2023/09/18 05:25:10;;;;;;;;;4.67;4.33;;;;;20.51;71.66;100168.09;5078478;28;45317;-66
2023/09/18 05:27:43;;;;;;;;;5.00;4.00;;;;;20.58;71.59;100171.38;5080036;28;45520;-69
2023/09/18 05:30:11;;;;;;;;;9.00;5.00;;;;;20.68;71.63;100188.59;5078875;28;45350;-68
2023/09/18 05:32:37;;;;;;;;;5.67;4.00;;;;;20.60;71.48;100177.50;5079940;27;45458;-69
2023/09/18 05:35:06;;;;;;;;;5.00;4.33;;;;;20.70;71.35;100191.19;5078349;27;45385;-69
2023/09/18 05:37:32;;;;;;;;;6.67;4.00;;;;;20.80;71.17;100191.63;5071211;27;45322;-67
2023/09/18 05:39:58;;;;;;;;;3.67;3.67;;;;;20.85;70.90;100187.78;5067473;27;45579;-67
2023/09/18 05:42:24;;;;;;;;;4.00;4.00;;;;;20.94;70.94;100189.13;5059431;27;45863;-67
2023/09/18 05:44:53;;;;;;;;;6.00;5.00;;;;;20.96;70.48;100173.94;5060456;27;45708;-68
2023/09/18 05:47:18;;;;;;;;;5.00;3.33;;;;;21.11;70.14;100181.16;5059307;27;45502;-68
2023/09/18 05:49:44;;;;;;;;;6.00;5.00;;;;;20.92;70.38;100167.03;5059495;27;45372;-68
2023/09/18 05:52:10;;;;;;;;;5.00;5.00;;;;;21.01;70.55;100179.03;5059024;27;46457;-67
2023/09/18 05:54:36;;;;;;;;;5.33;5.33;;;;;20.84;70.62;100161.25;5059535;27;45496;-69
2023/09/18 05:57:02;;;;;;;;;7.33;6.67;;;;;20.97;70.72;100183.66;5060205;27;45367;-68
2023/09/18 05:59:28;;;;;;;;;4.67;4.67;;;;;21.03;70.25;100194.00;5059574;27;45627;-68
2023/09/18 06:01:56;;;;;;;;;6.00;4.67;;;;;21.09;70.12;100192.81;5057393;28;46448;-67
2023/09/18 06:04:23;;;;;;;;;5.67;5.00;;;;;21.16;70.10;100211.06;5069174;28;45441;-68
2023/09/18 06:06:49;;;;;;;;;5.67;5.00;;;;;21.13;69.92;100197.06;5079121;28;45468;-68
2023/09/18 06:09:14;;;;;;;;;6.00;6.00;;;;;21.23;69.64;100216.09;5079567;28;45504;-68
2023/09/18 06:11:41;;;;;;;;;7.00;4.33;;;;;21.23;69.58;100203.63;5079420;28;45499;-67
2023/09/18 06:14:06;;;;;;;;;3.67;3.67;;;;;21.29;69.59;100221.13;5079066;28;45473;-68
2023/09/18 06:16:32;;;;;;;;;5.67;5.00;;;;;21.28;69.58;100219.38;5080476;28;45376;-67
2023/09/18 06:18:59;;;;;;;;;7.33;5.33;;;;;21.30;69.49;100218.38;5067239;28;45453;-67
2023/09/18 06:21:25;;;;;;;;;5.33;4.00;;;;;21.13;69.52;100191.72;5076589;27;45519;-67
2023/09/18 06:23:56;;;;;;;;;6.00;5.33;;;;;21.30;69.54;100207.72;5078495;27;45673;-68
2023/09/18 06:26:21;;;;;;;;;6.00;6.00;;;;;21.40;69.11;100213.47;5088349;27;45453;-68
2023/09/18 06:28:47;;;;;;;;;8.33;6.33;;;;;21.47;69.13;100230.84;5059017;27;45508;-68
2023/09/18 06:31:13;;;;;;;;;8.33;6.67;;;;;21.52;68.87;100239.50;5058658;27;45546;-67
2023/09/18 06:33:42;;;;;;;;;6.67;6.67;;;;;21.53;68.89;100259.00;5059216;27;45316;-68
2023/09/18 06:36:08;;;;;;;;;6.33;5.67;;;;;21.53;68.68;100240.34;5056445;27;45431;-67
2023/09/18 06:38:33;;;;;;;;;12.67;8.67;;;;;21.47;68.30;100222.84;5058630;27;45439;-67
2023/09/18 06:40:59;;;;;;;;;9.00;5.33;;;;;21.56;68.55;100232.19;5069317;27;46267;-67
2023/09/18 06:43:24;;;;;;;;;6.33;5.00;;;;;21.63;68.28;100225.59;5069438;27;45476;-67
2023/09/18 06:45:51;;;;;;;;;7.00;7.00;;;;;21.63;68.26;100227.41;5062745;27;45473;-70
2023/09/18 06:48:17;;;;;;;;;9.00;7.00;;;;;21.43;68.77;100213.31;5058606;27;45714;-67
2023/09/18 06:50:43;;;;;;;;;11.00;8.00;;;;;21.30;69.41;100223.69;5058315;27;45557;-67
2023/09/18 06:53:09;;;;;;;;;7.67;7.33;;;;;21.31;69.37;100220.09;5058539;27;45698;-67
2023/09/18 06:55:36;;;;;;;;;7.33;6.67;;;;;21.40;69.26;100221.44;5059380;27;45415;-67
2023/09/18 06:58:02;;;;;;;;;8.33;8.00;;;;;21.37;69.00;100214.44;5092562;27;45311;-68
2023/09/18 07:00:28;;;;;;;;;6.33;6.33;;;;;21.35;69.21;100207.47;5071339;27;46267;-68
2023/09/18 07:02:53;;;;;;;;;10.00;7.67;;;;;21.42;69.27;100224.91;5070395;28;45465;-69
2023/09/18 07:05:19;;;;;;;;;8.00;6.67;;;;;21.35;69.27;100223.47;5078689;28;45855;-68
2023/09/18 07:07:44;;;;;;;;;5.33;4.67;;;;;21.41;69.21;100223.19;5080058;28;45299;-67
2023/09/18 07:10:10;;;;;;;;;7.33;7.33;;;;;21.48;68.98;100234.41;5078507;27;46134;-67
2023/09/18 07:12:36;;;;;;;;;7.00;7.00;;;;;21.39;68.91;100223.25;5078305;28;45380;-67
2023/09/18 07:15:06;;;;;;;;;7.33;7.33;;;;;21.56;68.74;100240.19;5078272;28;45495;-69
2023/09/18 07:17:32;;;;;;;;;9.00;7.33;;;;;21.64;68.26;100239.78;5064554;28;45465;-69
2023/09/18 07:19:59;;;;;;;;;10.67;8.00;;;;;21.66;68.10;100237.91;5078185;28;46166;-68
2023/09/18 07:22:24;;;;;;;;;10.00;8.67;;;;;21.82;67.87;100246.81;5073447;28;45791;-69
2023/09/18 07:24:50;;;;;;;;;7.33;7.33;;;;;21.89;67.47;100256.22;5068210;27;45599;-69
2023/09/18 07:27:15;;;;;;;;;11.67;8.33;;;;;21.90;67.17;100249.97;5078676;28;45496;-69
2023/09/18 07:29:41;;;;;;;;;8.00;8.00;;;;;22.01;67.29;100260.06;5079712;28;45852;-68
2023/09/18 07:32:07;;;;;;;;;7.00;5.67;;;;;22.04;66.91;100262.53;5079132;28;45433;-67
2023/09/18 07:34:33;;;;;;;;;12.67;9.00;;;;;22.08;67.00;100266.78;5079430;28;45504;-67
2023/09/18 07:36:58;;;;;;;;;9.67;9.67;;;;;22.18;66.64;100275.16;5078912;28;45220;-68
2023/09/18 07:39:24;;;;;;;;;9.00;7.67;;;;;22.21;66.38;100267.88;5077707;28;46210;-68
2023/09/18 07:41:50;;;;;;;;;9.33;8.00;;;;;22.27;65.87;100252.50;5078519;28;45451;-69
2023/09/18 07:44:22;;;;;;;;;8.00;8.00;;;;;22.32;65.64;100261.09;5079322;27;45533;-68
2023/09/18 07:46:48;;;;;;;;;9.00;9.00;;;;;22.29;65.67;100258.63;5068501;28;45401;-68
2023/09/18 07:49:14;;;;;;;;;10.33;8.33;;;;;22.49;65.17;100266.38;5056699;27;45366;-69
2023/09/18 07:51:40;;;;;;;;;10.33;10.00;;;;;22.44;64.83;100247.94;5057267;27;45295;-69
2023/09/18 07:54:07;;;;;;;;;9.33;7.00;;;;;22.73;64.35;100258.84;5058365;27;45476;-68
2023/09/18 07:56:34;;;;;;;;;7.00;7.00;;;;;22.81;64.45;100263.72;5091258;27;45254;-69
2023/09/18 07:59:00;;;;;;;;;10.33;8.67;;;;;22.80;63.78;100252.19;5063161;27;46498;-69
2023/09/18 08:01:25;;;;;;;;;9.00;8.00;;;;;22.87;63.63;100266.03;5058622;27;45667;-67
2023/09/18 08:03:51;;;;;;;;;12.67;9.00;;;;;22.80;63.65;100276.22;5057348;27;45450;-68
2023/09/18 08:06:19;;;;;;;;;8.00;7.00;;;;;22.81;63.46;100258.41;5065542;27;45426;-67
2023/09/18 08:08:45;;;;;;;;;9.00;8.00;;;;;22.57;63.68;100226.78;5061433;27;46720;-69
2023/09/18 08:11:10;;;;;;;;;9.00;8.00;;;;;22.81;63.36;100267.25;5058061;28;45381;-67
2023/09/18 08:13:37;;;;;;;;;11.00;8.67;;;;;22.62;64.23;100269.25;5058217;27;45472;-69
2023/09/18 08:16:06;;;;;;;;;10.00;8.67;;;;;22.50;64.38;100265.44;5068601;27;45520;-68
2023/09/18 08:18:32;;;;;;;;;11.00;8.33;;;;;22.48;64.23;100264.66;5090856;27;46827;-69
2023/09/18 08:20:58;;;;;;;;;9.67;8.67;;;;;22.51;64.11;100263.63;5058014;27;45458;-68
2023/09/18 08:23:26;;;;;;;;;8.00;8.00;;;;;22.59;63.29;100248.03;5056775;28;45506;-68
2023/09/18 08:25:55;;;;;;;;;7.67;7.67;;;;;22.84;62.98;100244.88;5057046;27;45430;-70
2023/09/18 08:28:21;;;;;;;;;10.00;8.00;;;;;23.12;61.75;100260.19;5056764;27;46350;-68
2023/09/18 08:30:47;;;;;;;;;9.33;8.33;;;;;23.26;61.30;100257.59;5069930;27;45651;-69
2023/09/18 08:33:14;;;;;;;;;7.33;7.33;;;;;23.20;60.70;100225.03;5058295;27;45802;-68
2023/09/18 08:35:40;;;;;;;;;7.50;7.50;;;;;23.45;60.32;100254.69;5068567;27;45759;-68
2023/09/18 08:38:06;;;;;;;;;6.25;6.00;;;;;23.31;60.26;100261.81;5064352;28;46129;-68
2023/09/18 08:40:34;;;;;;;;;13.67;9.33;;;;;23.38;60.04;100268.50;5068334;27;45474;-69
2023/09/18 08:43:03;;;;;;;;;9.00;9.00;;;;;23.52;59.83;100265.03;5063299;27;45566;-69
2023/09/18 08:45:37;;;;;;;;;8.25;6.75;;;;;23.61;59.54;100269.81;5067518;27;45470;-66
2023/09/18 08:48:04;;;;;;;;;7.00;6.50;;;;;23.62;58.98;100266.19;5069447;27;46122;-68
2023/09/18 08:50:30;;;;;;;;;8.00;6.75;;;;;23.55;58.76;100271.03;5068040;27;45569;-70
2023/09/18 08:52:57;;;;;;;;;7.50;7.25;;;;;23.74;58.00;100270.84;5062956;27;45440;-67
2023/09/18 08:55:24;;;;;;;;;7.33;7.33;;;;;23.36;59.24;100265.94;5062987;27;45528;-69
2023/09/18 08:57:54;;;;;;;;;9.67;7.00;;;;;23.32;59.60;100248.34;5053735;27;45793;-69
2023/09/18 09:00:20;;;;;;;;;6.00;6.00;;;;;23.46;59.08;100240.38;5059373;28;45442;-69
2023/09/18 09:02:48;;;;;;;;;11.00;10.00;;;;;23.35;58.55;100216.13;5074301;28;45454;-69
2023/09/18 09:05:14;;;;;;;;;10.33;7.67;;;;;23.76;58.76;100268.94;5074215;27;45465;-70
2023/09/18 09:07:40;;;;;;;;;10.00;9.00;;;;;23.88;58.24;100261.97;5073281;28;45681;-67
2023/09/18 09:10:05;;;;;;;;;7.25;6.75;;;;;23.91;57.75;100262.63;5073067;28;45657;-69
2023/09/18 09:12:53;;;;;;;;;8.50;8.50;;;;;23.97;58.66;100255.22;5073545;27;45558;-69
2023/09/18 09:15:19;;;;;;;;;9.00;8.25;;;;;23.92;58.81;100240.31;5075779;28;45572;-69
2023/09/18 09:17:49;;;;;;;;;9.25;8.50;;;;;24.07;57.87;100243.00;5074670;28;45692;-69
2023/09/18 09:20:15;;;;;;;;;8.00;8.00;;;;;24.24;57.11;100253.50;5074135;28;45566;-69
2023/09/18 09:22:42;;;;;;;;;7.00;6.50;;;;;24.26;57.57;100262.28;5072314;27;45507;-68
2023/09/18 09:25:31;;;;;;;;;7.50;6.75;;;;;24.32;56.91;100255.69;5070897;27;45588;-69
2023/09/18 09:28:00;;;;;;;;;9.00;8.25;;;;;24.39;57.47;100259.69;5068711;27;45439;-69
2023/09/18 09:30:28;;;;;;;;;5.50;5.50;;;;;24.60;57.57;100256.66;5063155;27;45532;-69
2023/09/18 09:33:02;;;;;;;;;9.25;7.25;;;;;24.86;57.00;100261.16;5071132;27;45343;-67
2023/09/18 09:35:30;;;;;;;;;8.00;7.25;;;;;24.98;56.08;100251.47;5064437;28;46279;-69
2023/09/18 09:38:01;;;;;;;;;7.00;6.00;;;;;25.19;55.75;100267.97;5071833;27;45687;-68
2023/09/18 09:40:28;;;;;;;;;8.00;7.25;;;;;25.02;55.18;100246.78;5069341;27;45528;-69
2023/09/18 09:43:00;;;;;;;;;5.50;5.50;;;;;25.04;55.07;100268.97;5067542;28;45334;-68
2023/09/18 09:45:30;;;;;;;;;8.00;8.00;;;;;25.01;55.21;100275.41;5079190;27;45528;-69
2023/09/18 09:48:00;;;;;;;;;7.00;6.25;;;;;24.79;55.01;100251.81;5067283;27;46133;-68
2023/09/18 09:50:26;;;;;;;;;6.50;6.50;;;;;25.08;54.40;100262.44;5061040;27;45582;-69
2023/09/18 09:52:55;;;;;;;;;7.25;7.25;;;;;25.12;53.34;100286.25;5060205;27;45633;-67
2023/09/18 09:55:26;;;;;;;;;7.00;6.00;;;;;25.04;53.33;100269.84;5071114;27;45691;-70
2023/09/18 09:58:02;;;;;;;;;10.00;7.00;;;;;25.04;52.79;100271.66;5061053;27;46075;-69
2023/09/18 10:00:45;;;;;;;;;5.00;5.00;;;;;25.02;53.80;100274.44;5061543;28;45500;-68
2023/09/18 10:03:19;;;;;;;;;7.50;7.00;;;;;25.08;53.83;100281.19;5073862;27;45492;-68
2023/09/18 10:05:47;;;;;;;;;5.75;5.25;;;;;25.00;52.92;100273.66;5071302;28;45453;-69
2023/09/18 10:08:16;;;;;;;;;5.00;5.00;;;;;25.13;53.30;100279.94;5072286;27;45916;-71
2023/09/18 10:10:50;;;;;;;;;5.50;5.00;;;;;25.24;52.66;100279.25;5073742;28;45413;-69
2023/09/18 10:13:26;;;;;;;;;7.75;6.75;;;;;25.48;52.05;100276.75;5065264;27;45496;-70
2023/09/18 10:15:53;;;;;;;;;7.75;6.75;;;;;25.66;51.20;100289.88;5055877;28;45486;-70
2023/09/18 10:18:26;;;;;;;;;6.00;6.00;;;;;25.81;51.10;100281.63;5056626;28;45541;-69
2023/09/18 10:21:03;;;;;;;;;5.00;5.00;;;;;25.81;50.96;100270.03;5033048;28;45439;-68
2023/09/18 10:23:56;;;;;;;;;6.25;6.25;;;;;25.85;50.36;100259.97;5049085;28;45518;-70
2023/09/18 10:26:24;;;;;;;;;7.25;5.25;;;;;26.04;50.72;100281.91;5048611;28;45542;-69
2023/09/18 10:28:56;;;;;;;;;7.25;6.25;;;;;26.03;50.58;100264.09;5062553;28;45442;-69
2023/09/18 10:31:28;;;;;;;;;5.75;5.75;;;;;26.02;50.01;100240.91;5045989;28;45621;-69
2023/09/18 10:33:57;;;;;;;;;6.75;6.25;;;;;26.17;49.47;100271.16;5031554;28;45556;-70
2023/09/18 10:36:25;;;;;;;;;6.00;6.00;;;;;26.24;49.16;100269.75;5056453;28;45457;-70
2023/09/18 10:38:52;;;;;;;;;6.25;6.25;;;;;26.36;49.21;100276.06;5055507;28;46188;-70
2023/09/18 10:41:21;;;;;;;;;4.40;4.40;;;;;26.15;48.41;100252.50;5057611;28;45414;-69
2023/09/18 10:43:50;;;;;;;;;7.00;5.25;;;;;26.29;48.42;100270.31;5039113;28;45638;-69
2023/09/18 10:46:16;;;;;;;;;7.25;6.00;;;;;26.16;48.43;100281.03;5056605;28;45411;-69
2023/09/18 10:48:44;;;;;;;;;7.00;4.50;;;;;25.99;48.57;100273.31;5052979;28;45834;-69
2023/09/18 10:51:13;;;;;;;;;6.00;6.00;;;;;26.21;48.58;100278.03;5056279;28;45635;-69
2023/09/18 10:53:39;;;;;;;;;6.25;5.00;;;;;26.34;48.61;100289.63;5055492;28;46286;-68
2023/09/18 10:56:05;;;;;;;;;5.00;5.00;;;;;26.57;48.00;100271.03;5057929;28;45486;-68
2023/09/18 10:58:31;;;;;;;;;6.00;6.00;;;;;26.83;46.80;100263.75;5048597;28;45446;-68
2023/09/18 11:00:59;;;;;;;;;5.25;5.25;;;;;27.15;46.55;100272.13;5052076;28;45490;-68
2023/09/18 11:03:25;;;;;;;;;6.75;4.75;;;;;27.55;46.36;100273.66;5039902;28;45376;-68
2023/09/18 11:06:06;;;;;;;;;6.50;6.00;;;;;27.75;45.48;100281.06;5045582;28;45461;-69
2023/09/18 11:08:33;;;;;;;;;5.00;5.00;;;;;27.88;45.67;100284.56;5056909;28;46174;-68
2023/09/18 11:11:09;;;;;;;;;3.40;3.40;;;;;27.64;45.72;100273.81;5047935;28;45547;-69
2023/09/18 11:13:38;;;;;;;;;4.80;4.80;;;;;27.58;45.43;100285.06;5070203;28;45474;-69
2023/09/18 11:16:28;;;;;;;;;6.50;4.25;;;;;28.00;45.32;100280.06;5078163;28;45586;-70
2023/09/18 11:19:00;;;;;;;;;4.00;4.00;;;;;28.11;44.54;100290.81;5078459;28;46927;-69
2023/09/18 11:21:33;;;;;;;;;7.00;5.20;;;;;28.25;44.31;100281.66;5078319;28;45433;-67
2023/09/18 11:24:11;;;;;;;;;6.60;5.20;;;;;28.68;43.24;100277.38;5074859;27;45508;-68
2023/09/18 11:26:43;;;;;;;;;21.50;20.75;;;;;28.86;42.43;100275.88;5074683;28;45603;-67